createdAt,value
2022-09-12T00:00:31.746Z,14.18
2022-09-12T00:03:35.683Z,14.32
2022-09-12T00:06:39.180Z,14.82
2022-09-12T00:09:41.630Z,14.63
2022-09-12T00:12:44.319Z,14.75
2022-09-12T00:15:46.652Z,14.50
2022-09-12T00:18:50.371Z,16.55
2022-09-12T00:21:52.675Z,15.98
2022-09-12T00:24:54.832Z,16.98
2022-09-12T00:27:57.608Z,16.60
2022-09-12T00:30:59.846Z,17.90
2022-09-12T00:34:03.555Z,16.88
2022-09-12T00:37:05.918Z,16.30
2022-09-12T00:40:08.789Z,17.67
2022-09-12T00:43:13.194Z,17.85
2022-09-12T00:46:24.410Z,17.67
2022-09-12T00:49:29.857Z,16.88
2022-09-12T00:52:35.256Z,17.10
2022-09-12T00:55:40.575Z,17.40
2022-09-12T00:58:45.197Z,16.08
2022-09-12T01:01:50.244Z,17.00
2022-09-12T01:04:54.176Z,16.52
2022-09-12T01:07:57.151Z,15.45
2022-09-12T01:10:59.665Z,16.52
2022-09-12T01:14:01.938Z,16.40
2022-09-12T01:17:04.251Z,16.05
2022-09-12T01:20:35.954Z,15.13
2022-09-12T01:24:17.414Z,16.85
2022-09-12T01:27:41.048Z,15.93
2022-09-12T01:30:49.559Z,14.98
2022-09-12T01:33:58.710Z,15.73
2022-09-12T01:37:06.872Z,16.23
2022-09-12T01:40:16.571Z,15.93
2022-09-12T01:43:22.820Z,16.92
2022-09-12T01:46:31.970Z,16.25
2022-09-12T01:49:38.894Z,15.43
2022-09-12T01:52:44.904Z,16.30
2022-09-12T01:55:51.288Z,16.25
2022-09-12T01:58:57.992Z,16.02
2022-09-12T02:02:06.176Z,14.93
2022-09-12T02:05:10.059Z,15.48
2022-09-12T02:08:16.434Z,15.10
2022-09-12T02:11:19.191Z,16.05
2022-09-12T02:14:24.268Z,15.68
2022-09-12T02:17:29.749Z,15.38
2022-09-12T02:20:48.108Z,16.23
2022-09-12T02:23:54.291Z,16.15
2022-09-12T02:27:00.334Z,17.77
2022-09-12T02:30:02.501Z,15.98
2022-09-12T02:33:07.383Z,16.55
2022-09-12T02:36:15.332Z,16.20
2022-09-12T02:39:20.066Z,17.52
2022-09-12T02:42:22.566Z,15.98
2022-09-12T02:45:24.854Z,16.42
2022-09-12T02:48:31.851Z,18.20
2022-09-12T02:51:34.212Z,17.17
2022-09-12T02:54:38.106Z,16.17
2022-09-12T02:57:40.402Z,15.43
2022-09-12T03:00:46.644Z,15.18
2022-09-12T03:03:59.981Z,15.85
2022-09-12T03:07:12.310Z,15.23
2022-09-12T03:10:20.927Z,15.25
2022-09-12T03:13:25.902Z,16.15
2022-09-12T03:16:35.300Z,15.82
2022-09-12T03:19:47.463Z,15.65
2022-09-12T03:22:53.417Z,14.90
2022-09-12T03:25:59.351Z,16.35
2022-09-12T03:29:03.786Z,15.95
2022-09-12T03:32:07.374Z,15.68
2022-09-12T03:35:12.068Z,15.60
2022-09-12T03:38:14.516Z,14.52
2022-09-12T03:41:16.859Z,15.48
2022-09-12T03:44:19.454Z,16.27
2022-09-12T03:47:22.944Z,15.90
2022-09-12T03:50:26.858Z,15.35
2022-09-12T03:53:48.754Z,14.57
2022-09-12T03:59:52.914Z,14.50
2022-09-12T04:02:55.957Z,13.40
2022-09-12T04:05:59.476Z,13.55
2022-09-12T04:09:01.621Z,14.45
2022-09-12T04:12:04.443Z,13.68
2022-09-12T04:15:08.058Z,14.77
2022-09-12T04:18:10.188Z,12.88
2022-09-12T04:21:15.632Z,12.75
2022-09-12T04:24:18.160Z,12.60
2022-09-12T04:27:20.458Z,12.63
2022-09-12T04:30:22.720Z,13.18
2022-09-12T04:33:24.942Z,13.02
2022-09-12T04:36:29.487Z,12.07
2022-09-12T04:39:31.749Z,12.57
2022-09-12T04:42:34.661Z,12.63
2022-09-12T04:45:37.659Z,13.05
2022-09-12T04:48:40.029Z,12.05
2022-09-12T04:51:43.693Z,12.88
2022-09-12T04:54:45.842Z,12.98
2022-09-12T04:57:48.115Z,12.10
2022-09-12T05:00:52.948Z,13.05
2022-09-12T05:03:56.105Z,12.85
2022-09-12T05:07:00.028Z,12.98
2022-09-12T05:10:05.879Z,13.02
2022-09-12T05:17:06.235Z,11.82
2022-09-12T05:20:16.678Z,12.60
2022-09-12T05:23:41.852Z,12.15
2022-09-12T05:31:34.927Z,11.45
2022-09-12T05:34:51.539Z,11.07
2022-09-12T05:43:43.877Z,9.48
2022-09-12T05:47:13.658Z,9.65
2022-09-12T05:55:36.524Z,10.07
2022-09-12T05:59:55.604Z,9.63
2022-09-12T06:03:57.918Z,11.07
2022-09-12T06:11:34.269Z,10.45
2022-09-12T06:14:36.508Z,8.38
2022-09-12T06:17:38.774Z,9.52
2022-09-12T06:20:45.099Z,9.77
2022-09-12T06:29:38.910Z,9.27
2022-09-12T06:36:52.759Z,8.55
2022-09-12T06:39:56.054Z,8.38
2022-09-12T06:42:58.802Z,8.65
2022-09-12T06:46:12.287Z,8.07
2022-09-12T06:49:14.739Z,8.02
2022-09-12T06:52:18.650Z,8.32
2022-09-12T06:55:25.799Z,8.20
2022-09-12T06:58:31.171Z,7.63
2022-09-12T07:01:33.692Z,8.18
2022-09-12T07:04:37.254Z,8.43
2022-09-12T07:07:41.485Z,8.52
2022-09-12T07:10:43.836Z,8.30
2022-09-12T07:13:47.663Z,8.90
2022-09-12T07:16:50.057Z,8.82
2022-09-12T07:19:52.619Z,8.38
2022-09-12T07:22:56.541Z,8.63
2022-09-12T07:26:00.777Z,9.25
2022-09-12T07:29:25.549Z,9.00
2022-09-12T07:32:26.137Z,9.00
2022-09-12T07:35:28.603Z,8.45
2022-09-12T07:38:32.412Z,7.75
2022-09-12T07:41:34.780Z,9.02
2022-09-12T07:44:37.207Z,8.93
2022-09-12T07:47:40.889Z,7.93
2022-09-12T07:50:45.206Z,9.10
2022-09-12T07:53:49.412Z,9.43
2022-09-12T07:56:51.805Z,9.15
2022-09-12T07:59:55.046Z,8.68
2022-09-12T08:02:57.975Z,8.70
2022-09-12T08:06:04.882Z,9.77
2022-09-12T08:09:09.323Z,8.85
2022-09-12T08:12:12.552Z,8.93
2022-09-12T08:15:16.030Z,9.38
2022-09-12T08:18:18.640Z,9.75
2022-09-12T08:21:24.759Z,9.15
2022-09-12T08:24:29.727Z,9.45
2022-09-12T08:27:33.268Z,9.00
2022-09-12T08:30:37.467Z,8.90
2022-09-12T08:33:41.068Z,8.07
2022-09-12T08:36:43.973Z,9.63
2022-09-12T08:39:47.853Z,8.48
2022-09-12T08:42:55.075Z,8.65
2022-09-12T08:46:04.086Z,9.23
2022-09-12T08:49:10.282Z,8.82
2022-09-12T08:52:15.764Z,10.07
2022-09-12T08:55:33.124Z,8.20
2022-09-12T08:58:39.594Z,8.43
2022-09-12T09:01:44.463Z,8.50
2022-09-12T09:04:51.062Z,8.63
2022-09-12T09:08:04.939Z,7.88
2022-09-12T09:11:21.463Z,9.10
2022-09-12T09:14:50.395Z,8.80
2022-09-12T09:17:55.455Z,8.63
2022-09-12T09:21:01.633Z,8.00
2022-09-12T09:24:06.998Z,7.10
2022-09-12T09:27:36.851Z,7.35
2022-09-12T09:30:37.514Z,6.60
2022-09-12T09:33:41.133Z,7.45
2022-09-12T09:36:49.722Z,6.75
2022-09-12T09:39:59.865Z,6.47
2022-09-12T09:43:08.212Z,7.47
2022-09-12T09:46:14.195Z,6.00
2022-09-12T09:49:17.885Z,6.90
2022-09-12T09:52:25.644Z,6.35
2022-09-12T09:55:33.926Z,6.63
2022-09-12T09:58:40.594Z,6.15
2022-09-12T10:01:49.106Z,5.95
2022-09-12T10:04:55.206Z,5.70
2022-09-12T10:07:58.368Z,5.13
2022-09-12T10:11:03.013Z,5.55
2022-09-12T10:14:31.492Z,4.95
2022-09-12T10:17:42.711Z,4.53
2022-09-12T10:20:45.425Z,4.65
2022-09-12T10:23:51.914Z,4.88
2022-09-12T10:26:57.098Z,4.57
2022-09-12T10:30:04.739Z,5.32
2022-09-12T10:33:09.010Z,4.45
2022-09-12T10:36:11.362Z,4.35
2022-09-12T10:39:18.706Z,3.60
2022-09-12T10:42:45.923Z,3.22
2022-09-12T10:45:49.526Z,3.22
2022-09-12T10:48:53.076Z,2.95
2022-09-12T10:51:56.415Z,2.70
2022-09-12T10:54:59.118Z,3.33
2022-09-12T10:58:08.967Z,2.67
2022-09-12T11:01:29.477Z,2.65
2022-09-12T11:04:46.708Z,2.97
2022-09-12T11:07:50.935Z,2.65
2022-09-12T11:10:56.965Z,2.55
2022-09-12T11:14:11.618Z,2.33
2022-09-12T11:17:26.011Z,2.90
2022-09-12T11:20:38.569Z,2.83
2022-09-12T11:23:53.067Z,2.15
2022-09-12T11:27:07.084Z,2.47
2022-09-12T11:30:11.940Z,2.40
2022-09-12T11:33:30.553Z,2.17
2022-09-12T11:36:36.559Z,2.10
2022-09-12T11:39:39.973Z,1.90
2022-09-12T11:42:42.868Z,1.90
2022-09-12T11:45:46.102Z,2.10
2022-09-12T11:48:55.513Z,1.85
2022-09-12T11:52:00.644Z,2.10
2022-09-12T11:55:06.425Z,2.00
2022-09-12T11:58:08.936Z,1.70
2022-09-12T12:01:14.984Z,2.00
2022-09-12T12:04:22.132Z,1.77
2022-09-12T12:07:24.439Z,1.90
2022-09-12T12:10:32.153Z,1.90
2022-09-12T12:13:35.766Z,2.10
2022-09-12T12:16:38.816Z,2.67
2022-09-12T12:19:43.036Z,2.22
2022-09-12T12:22:51.953Z,2.67
2022-09-12T12:25:58.136Z,2.78
2022-09-12T12:29:00.798Z,2.40
2022-09-12T12:32:25.900Z,2.75
2022-09-12T12:35:42.407Z,2.70
2022-09-12T12:38:44.696Z,2.05
2022-09-12T12:41:46.946Z,2.80
2022-09-12T12:44:51.414Z,2.58
2022-09-12T12:47:55.500Z,2.60
2022-09-12T12:51:30.260Z,2.58
2022-09-12T12:54:58.146Z,2.53
2022-09-12T12:58:00.807Z,2.78
2022-09-12T13:01:10.098Z,2.40
2022-09-12T13:04:14.570Z,1.98
2022-09-12T13:07:26.204Z,2.13
2022-09-12T13:10:30.620Z,2.03
2022-09-12T13:13:36.572Z,2.42
2022-09-12T13:20:29.733Z,2.28
2022-09-12T13:23:32.754Z,1.90
2022-09-12T13:26:42.128Z,1.95
2022-09-12T13:29:44.431Z,2.30
2022-09-12T13:32:46.561Z,2.13
2022-09-12T13:36:22.710Z,1.90
2022-09-12T13:39:27.628Z,2.28
2022-09-12T13:42:39.982Z,2.30
2022-09-12T13:45:43.968Z,2.30
2022-09-12T13:48:49.200Z,2.45
2022-09-12T13:51:59.980Z,2.25
2022-09-12T13:55:06.516Z,2.35
2022-09-12T13:58:17.904Z,1.90
2022-09-12T14:01:21.043Z,2.15
2022-09-12T14:04:45.970Z,2.38
2022-09-12T14:07:55.007Z,3.33
2022-09-12T14:10:58.282Z,2.25
2022-09-12T14:14:06.837Z,1.98
2022-09-12T14:17:23.445Z,2.33
2022-09-12T14:20:26.230Z,2.20
2022-09-12T14:23:30.532Z,2.03
2022-09-12T14:26:35.046Z,2.30
2022-09-12T14:29:46.025Z,2.20
2022-09-12T14:33:03.648Z,2.25
2022-09-12T14:36:11.273Z,2.58
2022-09-12T14:39:24.448Z,2.20
2022-09-12T14:42:30.857Z,2.67
2022-09-12T14:45:35.866Z,2.25
2022-09-12T14:48:44.450Z,2.33
2022-09-12T14:51:54.890Z,2.55
2022-09-12T14:54:59.372Z,2.67
2022-09-12T14:58:16.604Z,2.40
2022-09-12T15:01:24.904Z,2.17
2022-09-12T15:04:43.037Z,2.40
2022-09-12T15:07:55.300Z,2.10
2022-09-12T15:10:58.123Z,2.95
2022-09-12T15:14:07.574Z,2.88
2022-09-12T15:17:11.286Z,2.75
2022-09-12T15:20:14.108Z,2.40
2022-09-12T15:23:20.724Z,2.05
2022-09-12T15:26:29.011Z,2.17
2022-09-12T15:29:31.344Z,2.10
2022-09-12T15:32:34.900Z,2.25
2022-09-12T15:35:37.444Z,2.33
2022-09-12T15:38:39.689Z,2.10
2022-09-12T15:41:41.950Z,2.28
2022-09-12T15:44:44.136Z,2.05
2022-09-12T15:47:47.677Z,2.30
2022-09-12T15:50:50.032Z,2.33
2022-09-12T15:53:52.604Z,2.40
2022-09-12T15:56:57.538Z,2.05
2022-09-12T16:00:03.103Z,1.98
2022-09-12T16:03:21.935Z,2.00
2022-09-12T16:06:24.432Z,1.83
2022-09-12T16:09:26.755Z,1.92
2022-09-12T16:12:28.956Z,1.88
2022-09-12T16:15:45.074Z,2.00
2022-09-12T16:18:59.357Z,1.70
2022-09-12T16:22:18.429Z,1.95
2022-09-12T16:25:40.234Z,1.83
2022-09-12T16:28:57.003Z,1.85
2022-09-12T16:37:24.640Z,1.77
2022-09-12T16:45:51.418Z,1.98
2022-09-12T16:50:19.914Z,1.63
2022-09-12T16:54:05.346Z,1.50
2022-09-12T16:58:02.451Z,1.30
2022-09-12T17:01:09.176Z,1.40
2022-09-12T17:04:45.503Z,1.35
2022-09-12T17:09:17.643Z,1.80
2022-09-12T17:12:34.628Z,1.98
2022-09-12T17:15:48.593Z,1.98
2022-09-12T17:19:02.996Z,2.17
2022-09-12T17:22:23.214Z,1.98
2022-09-12T17:25:27.864Z,2.53
2022-09-12T17:28:32.241Z,2.42
2022-09-12T17:31:35.148Z,2.70
2022-09-12T17:34:38.197Z,2.38
2022-09-12T17:37:42.290Z,2.42
2022-09-12T17:40:59.117Z,2.58
2022-09-12T17:44:07.708Z,2.75
2022-09-12T17:47:10.150Z,2.17
2022-09-12T17:50:30.686Z,2.15
2022-09-12T17:53:34.611Z,2.15
2022-09-12T17:56:38.152Z,2.08
2022-09-12T17:59:42.158Z,2.03
2022-09-12T18:02:46.754Z,1.80
2022-09-12T18:05:52.921Z,2.05
2022-09-12T18:08:56.213Z,1.67
2022-09-12T18:11:58.989Z,1.85
2022-09-12T18:15:03.496Z,1.70
2022-09-12T18:18:06.426Z,1.80
2022-09-12T18:21:11.215Z,1.40
2022-09-12T18:24:13.958Z,1.73
2022-09-12T18:27:16.853Z,1.80
2022-09-12T18:30:22.962Z,1.77
2022-09-12T18:33:25.815Z,1.63
2022-09-12T18:36:29.609Z,1.70
2022-09-12T18:39:32.417Z,2.42
2022-09-12T18:42:34.934Z,1.50
2022-09-12T18:45:38.746Z,1.40
2022-09-12T18:48:41.390Z,1.70
2022-09-12T18:51:44.772Z,1.48
2022-09-12T18:54:47.316Z,1.50
2022-09-12T18:57:50.809Z,1.30
2022-09-12T19:00:54.844Z,1.92
2022-09-12T19:03:58.004Z,1.48
2022-09-12T19:07:03.837Z,1.83
2022-09-12T19:10:07.171Z,1.88
2022-09-12T19:13:13.743Z,1.65
2022-09-12T19:16:19.319Z,1.88
2022-09-12T19:19:21.779Z,1.80
2022-09-12T19:22:24.098Z,1.95
2022-09-12T19:25:26.609Z,1.85
2022-09-12T19:28:29.451Z,1.85
2022-09-12T19:31:33.375Z,2.00
2022-09-12T19:34:35.822Z,2.00
2022-09-12T19:37:38.222Z,1.50
2022-09-12T19:40:40.656Z,1.95
2022-09-12T19:43:43.078Z,2.00
2022-09-12T19:46:46.957Z,2.38
2022-09-12T19:49:49.389Z,2.10
2022-09-12T19:52:51.681Z,1.80
2022-09-12T19:55:58.530Z,1.90
2022-09-12T19:59:00.915Z,3.30
2022-09-12T20:02:04.773Z,2.50
2022-09-12T20:05:08.296Z,2.60
2022-09-12T20:08:10.896Z,4.40
2022-09-12T20:11:14.665Z,2.10
2022-09-12T20:14:17.022Z,2.83
2022-09-12T20:17:20.681Z,2.10
2022-09-12T20:20:25.287Z,2.60
2022-09-12T20:23:27.564Z,2.30
2022-09-12T20:26:30.217Z,2.38
2022-09-12T20:29:32.456Z,2.20
2022-09-12T20:32:36.199Z,2.10
2022-09-12T20:35:38.510Z,3.92
2022-09-12T20:38:41.339Z,2.67
2022-09-12T20:41:44.240Z,3.05
2022-09-12T20:44:47.036Z,2.63
2022-09-12T20:47:51.409Z,2.90
2022-09-12T20:50:54.039Z,2.33
2022-09-12T20:53:56.702Z,2.47
2022-09-12T20:56:59.170Z,4.00
2022-09-12T21:00:01.832Z,3.85
2022-09-12T21:03:08.367Z,3.40
2022-09-12T21:06:14.738Z,2.03
2022-09-12T21:09:17.221Z,2.60
2022-09-12T21:12:19.695Z,2.47
2022-09-12T21:15:22.176Z,3.00
2022-09-12T21:18:26.142Z,2.03
2022-09-12T21:21:28.570Z,2.75
2022-09-12T21:24:31.043Z,2.65
2022-09-12T21:27:33.432Z,2.92
2022-09-12T21:30:35.650Z,2.78
2022-09-12T21:33:39.303Z,2.35
2022-09-12T21:36:42.753Z,3.00
2022-09-12T21:39:45.162Z,2.58
2022-09-12T21:42:48.318Z,2.60
2022-09-12T21:45:57.141Z,2.33
2022-09-12T21:49:00.765Z,2.50
2022-09-12T21:52:03.446Z,2.53
2022-09-12T21:55:07.365Z,2.67
2022-09-12T21:58:09.705Z,2.40
2022-09-12T22:01:12.496Z,2.53
2022-09-12T22:04:16.318Z,2.75
2022-09-12T22:07:19.110Z,3.05
2022-09-12T22:10:21.470Z,2.80
2022-09-12T22:13:24.006Z,2.83
2022-09-12T22:16:26.503Z,2.35
2022-09-12T22:19:30.268Z,2.40
2022-09-12T22:22:53.488Z,2.67
2022-09-12T22:25:57.264Z,2.60
2022-09-12T22:29:00.959Z,3.20
2022-09-12T22:32:03.845Z,3.03
2022-09-12T22:35:08.185Z,2.80
2022-09-12T22:38:10.940Z,2.85
2022-09-12T22:41:13.331Z,3.08
2022-09-12T22:44:17.704Z,2.92
2022-09-12T22:47:20.366Z,2.88
2022-09-12T22:50:25.583Z,3.35
2022-09-12T22:53:27.909Z,3.08
2022-09-12T22:56:30.150Z,3.05
2022-09-12T22:59:32.454Z,2.70
2022-09-12T23:02:34.910Z,2.75
2022-09-12T23:05:38.553Z,3.33
2022-09-12T23:08:40.919Z,3.83
2022-09-12T23:11:43.350Z,3.10
2022-09-12T23:14:46.653Z,4.00
2022-09-12T23:17:49.345Z,3.45
2022-09-12T23:21:02.601Z,3.05
2022-09-12T23:24:05.335Z,3.42
2022-09-12T23:27:07.699Z,3.30
2022-09-12T23:30:11.129Z,3.33
2022-09-12T23:33:13.501Z,3.38
2022-09-12T23:36:17.460Z,3.35
2022-09-12T23:39:19.821Z,4.00
2022-09-12T23:42:22.107Z,3.60
2022-09-12T23:45:24.616Z,3.13
2022-09-12T23:48:27.644Z,3.78
2022-09-12T23:51:31.482Z,3.70
2022-09-12T23:54:33.761Z,3.72
2022-09-12T23:57:36.046Z,3.83
